createdAt,value
2023-05-22T00:00:42.573Z,78.66
2023-05-22T00:03:27.241Z,78.63
2023-05-22T00:05:59.093Z,78.75
2023-05-22T00:08:29.831Z,78.55
2023-05-22T00:10:58.075Z,78.73
2023-05-22T00:13:29.040Z,79.02
2023-05-22T00:15:57.597Z,78.98
2023-05-22T00:18:28.939Z,78.87
2023-05-22T00:20:58.629Z,78.85
2023-05-22T00:23:30.156Z,78.64
2023-05-22T00:25:58.633Z,80.27
2023-05-22T00:28:28.344Z,80.27
2023-05-22T00:30:56.782Z,79.28
2023-05-22T00:33:25.294Z,78.99
2023-05-22T00:35:53.970Z,78.58
2023-05-22T00:38:32.957Z,78.79
2023-05-22T00:41:01.480Z,78.61
2023-05-22T00:43:29.902Z,78.70
2023-05-22T00:46:01.902Z,78.94
2023-05-22T00:48:30.645Z,78.97
2023-05-22T00:51:00.656Z,78.79
2023-05-22T00:53:31.386Z,78.35
2023-05-22T00:56:03.751Z,78.15
2023-05-22T00:58:32.799Z,78.33
2023-05-22T01:01:03.648Z,78.22
2023-05-22T01:03:32.183Z,78.19
2023-05-22T01:06:01.273Z,78.38
2023-05-22T01:08:30.376Z,78.54
2023-05-22T01:11:24.833Z,78.66
2023-05-22T01:14:08.705Z,78.70
2023-05-22T01:16:47.035Z,78.53
2023-05-22T01:19:24.213Z,79.06
2023-05-22T01:22:10.653Z,79.42
2023-05-22T01:25:08.528Z,79.11
2023-05-22T01:28:11.962Z,79.27
2023-05-22T01:30:55.433Z,79.26
2023-05-22T01:33:27.519Z,79.42
2023-05-22T01:35:58.548Z,79.57
2023-05-22T01:38:27.779Z,79.75
2023-05-22T01:40:57.364Z,80.10
2023-05-22T01:43:25.657Z,80.09
2023-05-22T01:45:53.962Z,80.44
2023-05-22T01:48:22.181Z,80.92
2023-05-22T01:50:53.305Z,81.02
2023-05-22T01:53:34.002Z,81.02
2023-05-22T01:56:07.824Z,81.00
2023-05-22T01:58:53.090Z,80.96
2023-05-22T02:01:23.971Z,80.46
2023-05-22T02:03:57.118Z,80.66
2023-05-22T02:06:28.360Z,80.98
2023-05-22T02:08:58.066Z,81.44
2023-05-22T02:11:31.768Z,81.32
2023-05-22T02:14:01.940Z,81.24
2023-05-22T02:16:39.255Z,81.33
2023-05-22T02:19:07.921Z,81.13
2023-05-22T02:21:36.722Z,80.96
2023-05-22T02:24:05.903Z,80.84
2023-05-22T02:26:37.398Z,80.82
2023-05-22T02:29:08.842Z,80.95
2023-05-22T02:31:37.471Z,80.84
2023-05-22T02:34:06.780Z,80.64
2023-05-22T02:36:41.080Z,80.42
2023-05-22T02:39:15.051Z,80.41
2023-05-22T02:41:43.268Z,80.63
2023-05-22T02:44:11.693Z,80.72
2023-05-22T02:46:47.678Z,80.56
2023-05-22T02:49:16.737Z,80.50
2023-05-22T02:51:47.859Z,80.63
2023-05-22T02:54:16.727Z,80.75
2023-05-22T02:56:49.924Z,80.87
2023-05-22T02:59:18.042Z,80.79
2023-05-22T03:01:48.391Z,80.54
2023-05-22T03:04:19.404Z,80.52
2023-05-22T03:06:48.001Z,80.41
2023-05-22T03:09:16.843Z,80.53
2023-05-22T03:11:48.469Z,80.70
2023-05-22T03:14:19.830Z,80.87
2023-05-22T03:16:48.410Z,80.79
2023-05-22T03:19:17.678Z,80.63
2023-05-22T03:21:48.476Z,80.72
2023-05-22T03:24:17.079Z,80.98
2023-05-22T03:26:45.245Z,80.94
2023-05-22T03:29:18.750Z,81.19
2023-05-22T03:31:46.874Z,81.21
2023-05-22T03:34:16.864Z,81.41
2023-05-22T03:36:46.803Z,81.46
2023-05-22T03:39:16.510Z,81.78
2023-05-22T03:41:52.284Z,82.15
2023-05-22T03:44:21.041Z,82.10
2023-05-22T03:46:49.081Z,82.25
2023-05-22T03:49:17.253Z,82.10
2023-05-22T03:51:45.512Z,82.10
2023-05-22T03:54:13.648Z,82.27
2023-05-22T03:56:44.067Z,82.35
2023-05-22T03:59:12.212Z,82.49
2023-05-22T04:01:41.480Z,83.14
2023-05-22T04:04:12.496Z,83.31
2023-05-22T04:06:43.803Z,83.38
2023-05-22T04:09:14.887Z,83.55
2023-05-22T04:11:43.156Z,84.19
2023-05-22T04:14:12.340Z,84.21
2023-05-22T04:16:40.219Z,83.96
2023-05-22T04:19:11.076Z,84.16
2023-05-22T04:21:39.453Z,84.35
2023-05-22T04:24:09.563Z,84.33
2023-05-22T04:26:42.337Z,83.97
2023-05-22T04:29:14.474Z,83.59
2023-05-22T04:31:43.472Z,83.42
2023-05-22T04:34:15.569Z,83.27
2023-05-22T04:36:45.446Z,82.91
2023-05-22T04:39:14.910Z,82.70
2023-05-22T04:41:43.010Z,82.49
2023-05-22T04:44:11.087Z,82.50
2023-05-22T04:46:39.609Z,80.52
2023-05-22T04:49:08.596Z,76.51
2023-05-22T04:51:36.690Z,71.99
2023-05-22T04:54:04.999Z,69.61
2023-05-22T04:56:36.671Z,65.49
2023-05-22T04:59:09.478Z,60.94
2023-05-22T05:01:39.953Z,53.39
2023-05-22T05:04:09.512Z,54.26
2023-05-22T05:06:38.113Z,51.34
2023-05-22T05:09:07.156Z,47.07
2023-05-22T05:11:36.178Z,45.83
2023-05-22T05:14:05.018Z,41.24
2023-05-22T05:16:33.148Z,41.20
2023-05-22T05:19:01.553Z,35.91
2023-05-22T05:21:31.607Z,38.36
2023-05-22T05:24:02.362Z,38.33
2023-05-22T05:26:30.318Z,39.79
2023-05-22T05:28:59.948Z,39.25
2023-05-22T05:31:36.162Z,40.30
2023-05-22T05:34:14.375Z,38.35
2023-05-22T05:37:05.947Z,36.63
2023-05-22T05:39:34.931Z,38.15
2023-05-22T05:42:05.139Z,40.57
2023-05-22T05:44:34.045Z,41.00
2023-05-22T05:47:04.806Z,40.31
2023-05-22T05:49:35.650Z,41.69
2023-05-22T05:52:05.315Z,42.38
2023-05-22T05:54:36.375Z,42.06
2023-05-22T05:57:11.577Z,43.34
2023-05-22T05:59:39.796Z,44.59
2023-05-22T06:02:26.932Z,44.05
2023-05-22T06:04:56.614Z,43.80
2023-05-22T06:07:25.198Z,43.77
2023-05-22T06:09:55.029Z,44.67
2023-05-22T06:12:45.816Z,45.21
2023-05-22T06:15:13.943Z,45.10
2023-05-22T06:17:42.507Z,43.89
2023-05-22T06:20:11.909Z,43.57
2023-05-22T06:22:40.203Z,44.33
2023-05-22T06:25:10.067Z,44.63
2023-05-22T06:27:38.474Z,44.91
2023-05-22T06:30:07.687Z,45.08
2023-05-22T06:32:39.712Z,45.93
2023-05-22T06:35:09.008Z,45.48
2023-05-22T06:37:38.641Z,45.02
2023-05-22T06:40:08.025Z,44.67
2023-05-22T06:42:53.381Z,44.81
2023-05-22T06:45:37.584Z,44.42
2023-05-22T06:48:33.466Z,44.02
2023-05-22T06:51:15.223Z,44.47
2023-05-22T06:53:52.537Z,43.92
2023-05-22T06:56:44.158Z,43.52
2023-05-22T06:59:20.494Z,43.41
2023-05-22T07:02:06.606Z,43.24
2023-05-22T07:04:58.164Z,42.49
2023-05-22T07:07:33.775Z,41.37
2023-05-22T07:10:02.321Z,38.99
2023-05-22T07:12:30.781Z,38.56
2023-05-22T07:15:00.363Z,37.62
2023-05-22T07:17:30.272Z,36.21
2023-05-22T07:19:58.595Z,35.82
2023-05-22T07:22:27.318Z,33.63
2023-05-22T07:24:56.482Z,33.77
2023-05-22T07:27:24.984Z,35.61
2023-05-22T07:29:54.327Z,36.29
2023-05-22T07:32:25.424Z,36.49
2023-05-22T07:34:54.385Z,37.15
2023-05-22T07:37:22.506Z,34.60
2023-05-22T07:39:50.856Z,36.49
2023-05-22T07:42:44.487Z,37.14
2023-05-22T07:45:13.191Z,37.40
2023-05-22T07:47:41.500Z,36.74
2023-05-22T07:50:10.263Z,36.04
2023-05-22T07:52:40.163Z,36.49
2023-05-22T07:55:09.281Z,37.12
2023-05-22T07:57:38.785Z,36.76
2023-05-22T08:00:17.227Z,35.72
2023-05-22T08:02:45.788Z,37.57
2023-05-22T08:05:14.177Z,37.23
2023-05-22T08:07:42.415Z,37.49
2023-05-22T08:10:17.811Z,37.65
2023-05-22T08:13:12.494Z,37.39
2023-05-22T08:15:41.285Z,37.13
2023-05-22T08:18:09.521Z,35.97
2023-05-22T08:20:39.076Z,35.39
2023-05-22T08:23:07.400Z,35.67
2023-05-22T08:25:35.555Z,35.78
2023-05-22T08:28:04.229Z,36.17
2023-05-22T08:30:32.313Z,36.14
2023-05-22T08:33:01.029Z,36.19
2023-05-22T08:35:29.142Z,35.79
2023-05-22T08:37:57.450Z,35.56
2023-05-22T08:40:34.900Z,35.28
2023-05-22T08:43:05.306Z,34.71
2023-05-22T08:45:34.431Z,35.51
2023-05-22T08:48:08.160Z,35.21
2023-05-22T08:50:43.672Z,34.93
2023-05-22T08:53:15.283Z,35.37
2023-05-22T08:55:43.806Z,35.32
2023-05-22T08:58:12.715Z,34.78
2023-05-22T09:00:42.192Z,35.62
2023-05-22T09:03:14.078Z,35.81
2023-05-22T09:05:42.387Z,35.80
2023-05-22T09:08:19.720Z,35.71
2023-05-22T09:10:49.164Z,35.76
2023-05-22T09:13:31.264Z,36.50
2023-05-22T09:16:10.086Z,36.30
2023-05-22T09:18:38.989Z,35.58
2023-05-22T09:21:21.725Z,35.27
2023-05-22T09:24:08.990Z,34.68
2023-05-22T09:26:41.333Z,34.59
2023-05-22T09:29:09.764Z,35.21
2023-05-22T09:31:44.786Z,36.68
2023-05-22T09:34:17.873Z,35.67
2023-05-22T09:36:46.454Z,35.09
2023-05-22T09:39:14.827Z,34.50
2023-05-22T09:41:44.619Z,35.08
2023-05-22T09:44:14.467Z,35.48
2023-05-22T09:46:47.781Z,36.11
2023-05-22T09:49:17.248Z,35.91
2023-05-22T09:51:49.486Z,35.61
2023-05-22T09:54:20.105Z,35.36
2023-05-22T09:56:53.932Z,35.03
2023-05-22T09:59:26.976Z,34.90
2023-05-22T10:01:55.724Z,34.70
2023-05-22T10:04:24.244Z,34.81
2023-05-22T10:06:56.600Z,34.43
2023-05-22T10:09:31.544Z,34.81
2023-05-22T10:12:05.732Z,34.96
2023-05-22T10:14:35.730Z,34.03
2023-05-22T10:17:06.637Z,32.91
2023-05-22T10:19:42.211Z,33.27
2023-05-22T10:22:21.179Z,31.99
2023-05-22T10:24:51.313Z,31.46
2023-05-22T10:27:19.883Z,32.38
2023-05-22T10:29:53.147Z,32.81
2023-05-22T10:32:46.887Z,33.23
2023-05-22T10:35:34.270Z,33.37
2023-05-22T10:38:15.079Z,32.84
2023-05-22T10:40:48.424Z,33.15
2023-05-22T10:43:16.951Z,32.38
2023-05-22T10:45:47.247Z,32.40
2023-05-22T10:48:16.065Z,32.01
2023-05-22T10:50:57.584Z,31.11
2023-05-22T10:53:32.924Z,31.47
2023-05-22T10:56:18.225Z,32.20
2023-05-22T10:59:02.885Z,32.70
2023-05-22T11:01:38.498Z,32.02
2023-05-22T11:04:19.295Z,32.34
2023-05-22T11:07:06.934Z,32.14
2023-05-22T11:09:48.220Z,31.50
2023-05-22T11:12:21.854Z,30.85
2023-05-22T11:14:57.902Z,31.23
2023-05-22T11:17:32.638Z,31.62
2023-05-22T11:20:18.920Z,31.61
2023-05-22T11:22:51.507Z,31.52
2023-05-22T11:25:20.784Z,31.24
2023-05-22T11:27:51.659Z,30.62
2023-05-22T11:30:20.939Z,30.23
2023-05-22T11:32:52.203Z,28.78
2023-05-22T11:35:22.390Z,29.27
2023-05-22T11:37:52.639Z,29.44
2023-05-22T11:40:26.094Z,29.56
2023-05-22T11:42:54.733Z,29.25
2023-05-22T11:45:27.069Z,29.67
2023-05-22T11:47:55.959Z,30.50
2023-05-22T11:50:40.410Z,30.93
2023-05-22T11:53:10.641Z,31.53
2023-05-22T11:55:39.038Z,31.39
2023-05-22T11:58:07.143Z,32.15
2023-05-22T12:00:35.259Z,32.41
2023-05-22T12:03:04.275Z,31.84
2023-05-22T12:05:32.788Z,30.70
2023-05-22T12:08:01.250Z,30.10
2023-05-22T12:10:29.220Z,30.77
2023-05-22T12:12:57.604Z,30.49
2023-05-22T12:15:27.172Z,30.11
2023-05-22T12:17:56.298Z,30.08
2023-05-22T12:20:30.326Z,29.99
2023-05-22T12:22:59.856Z,30.81
2023-05-22T12:25:36.089Z,29.61
2023-05-22T12:28:06.540Z,30.70
2023-05-22T12:30:42.332Z,30.73
2023-05-22T12:33:17.422Z,31.20
2023-05-22T12:35:46.211Z,31.67
2023-05-22T12:38:14.395Z,31.10
2023-05-22T12:40:42.843Z,32.04
2023-05-22T12:43:11.329Z,31.92
2023-05-22T12:45:42.448Z,32.12
2023-05-22T12:48:10.612Z,31.43
2023-05-22T12:50:39.060Z,31.88
2023-05-22T12:53:07.533Z,31.31
2023-05-22T12:55:36.316Z,31.33
2023-05-22T12:58:04.510Z,31.51
2023-05-22T13:00:32.880Z,29.97
2023-05-22T13:03:01.515Z,30.62
2023-05-22T13:05:29.989Z,30.65
2023-05-22T13:07:58.186Z,31.16
2023-05-22T13:10:26.303Z,31.36
2023-05-22T13:12:54.333Z,31.07
2023-05-22T13:15:23.099Z,31.90
2023-05-22T13:17:54.369Z,31.87
2023-05-22T13:20:23.572Z,30.54
2023-05-22T13:22:51.701Z,31.08
2023-05-22T13:25:20.040Z,31.46
2023-05-22T13:27:48.250Z,31.38
2023-05-22T13:30:16.639Z,31.47
2023-05-22T13:32:44.920Z,31.21
2023-05-22T13:35:13.128Z,31.00
2023-05-22T13:37:41.508Z,30.30
2023-05-22T13:40:10.501Z,30.73
2023-05-22T13:42:39.182Z,31.22
2023-05-22T13:45:08.109Z,30.78
2023-05-22T13:47:36.466Z,30.54
2023-05-22T13:50:05.657Z,30.25
2023-05-22T13:52:33.782Z,30.70
2023-05-22T13:55:01.901Z,30.95
2023-05-22T13:57:30.011Z,31.16
2023-05-22T13:59:58.272Z,31.49
2023-05-22T14:02:26.571Z,32.57
2023-05-22T14:04:54.958Z,31.98
2023-05-22T14:07:23.840Z,31.66
2023-05-22T14:09:52.032Z,32.26
2023-05-22T14:12:22.904Z,32.37
2023-05-22T14:15:02.592Z,31.39
2023-05-22T14:17:33.271Z,30.39
2023-05-22T14:20:01.793Z,31.56
2023-05-22T14:22:32.732Z,31.96
2023-05-22T14:25:04.919Z,31.57
2023-05-22T14:27:33.152Z,31.96
2023-05-22T14:30:15.556Z,31.92
2023-05-22T14:32:43.736Z,31.24
2023-05-22T14:35:12.930Z,32.22
2023-05-22T14:37:41.065Z,32.22
2023-05-22T14:40:10.797Z,32.43
2023-05-22T14:42:46.872Z,31.64
2023-05-22T14:45:15.154Z,31.59
2023-05-22T14:47:43.973Z,31.96
2023-05-22T14:50:19.946Z,32.18
2023-05-22T14:52:49.553Z,32.40
2023-05-22T14:55:22.176Z,34.41
2023-05-22T14:57:50.575Z,34.52
2023-05-22T15:00:18.926Z,34.39
2023-05-22T15:02:47.298Z,33.45
2023-05-22T15:05:17.646Z,32.66
2023-05-22T15:07:48.373Z,32.65
2023-05-22T15:10:18.354Z,33.08
2023-05-22T15:12:46.363Z,33.71
2023-05-22T15:15:14.440Z,33.88
2023-05-22T15:17:43.124Z,33.85
2023-05-22T15:20:23.970Z,34.46
2023-05-22T15:22:52.044Z,34.62
2023-05-22T15:25:20.190Z,35.79
2023-05-22T15:27:48.346Z,35.72
2023-05-22T15:30:17.217Z,35.20
2023-05-22T15:32:45.626Z,35.22
2023-05-22T15:35:14.038Z,35.48
2023-05-22T15:37:42.328Z,34.68
2023-05-22T15:40:12.552Z,34.34
2023-05-22T15:42:43.664Z,34.95
2023-05-22T15:45:12.187Z,34.58
2023-05-22T15:47:41.580Z,35.02
2023-05-22T15:50:10.029Z,35.58
2023-05-22T15:52:38.498Z,35.60
2023-05-22T15:55:07.084Z,35.74
2023-05-22T15:57:35.337Z,35.75
2023-05-22T16:00:04.145Z,35.56
2023-05-22T16:02:32.581Z,35.83
2023-05-22T16:05:00.950Z,35.98
2023-05-22T16:07:29.211Z,35.72
2023-05-22T16:09:57.145Z,34.86
2023-05-22T16:12:25.351Z,35.45
2023-05-22T16:14:59.860Z,35.45
2023-05-22T16:17:29.823Z,36.84
2023-05-22T16:19:58.021Z,37.15
2023-05-22T16:22:40.344Z,37.96
2023-05-22T16:25:16.937Z,39.30
2023-05-22T16:27:47.049Z,40.25
2023-05-22T16:30:18.816Z,40.16
2023-05-22T16:32:48.400Z,41.11
2023-05-22T16:35:18.982Z,41.36
2023-05-22T16:37:47.138Z,40.88
2023-05-22T16:40:15.611Z,41.46
2023-05-22T16:42:44.206Z,41.82
2023-05-22T16:45:12.429Z,43.76
2023-05-22T16:47:40.791Z,43.54
2023-05-22T16:50:09.573Z,43.71
2023-05-22T16:52:37.918Z,44.36
2023-05-22T16:55:06.918Z,45.65
2023-05-22T16:57:35.017Z,46.69
2023-05-22T17:00:03.992Z,47.16
2023-05-22T17:02:32.935Z,46.66
2023-05-22T17:05:01.158Z,47.12
2023-05-22T17:07:31.859Z,47.52
2023-05-22T17:10:00.097Z,47.34
2023-05-22T17:12:28.638Z,47.65
2023-05-22T17:14:57.188Z,47.78
2023-05-22T17:17:25.576Z,48.63
2023-05-22T17:19:54.094Z,49.42
2023-05-22T17:22:22.515Z,49.38
2023-05-22T17:24:51.116Z,49.34
2023-05-22T17:27:34.381Z,49.93
2023-05-22T17:30:03.605Z,49.86
2023-05-22T17:32:32.018Z,50.85
2023-05-22T17:35:01.828Z,50.83
2023-05-22T17:37:38.966Z,51.14
2023-05-22T17:40:08.268Z,52.24
2023-05-22T17:42:36.441Z,52.18
2023-05-22T17:45:15.185Z,52.68
2023-05-22T17:47:43.521Z,53.34
2023-05-22T17:50:14.758Z,53.42
2023-05-22T17:52:42.944Z,54.18
2023-05-22T17:55:11.254Z,55.71
2023-05-22T17:57:39.462Z,56.48
2023-05-22T18:00:10.119Z,55.79
2023-05-22T18:02:41.693Z,55.91
2023-05-22T18:05:10.498Z,56.72
2023-05-22T18:07:39.478Z,57.89
2023-05-22T18:10:08.995Z,57.68
2023-05-22T18:12:38.305Z,58.92
2023-05-22T18:15:09.634Z,58.23
2023-05-22T18:17:38.721Z,61.32
2023-05-22T18:20:08.820Z,61.40
2023-05-22T18:22:50.322Z,61.07
2023-05-22T18:25:23.421Z,61.12
2023-05-22T18:27:52.427Z,61.36
2023-05-22T18:30:33.279Z,61.55
2023-05-22T18:33:02.121Z,60.82
2023-05-22T18:35:35.944Z,61.83
2023-05-22T18:38:14.464Z,62.43
2023-05-22T18:40:47.283Z,61.94
2023-05-22T18:43:28.375Z,62.75
2023-05-22T18:46:00.356Z,65.09
2023-05-22T18:48:34.800Z,64.17
2023-05-22T18:51:03.388Z,63.87
2023-05-22T18:53:51.993Z,63.61
2023-05-22T18:56:22.742Z,63.95
2023-05-22T18:58:50.803Z,64.12
2023-05-22T19:01:26.277Z,64.51
2023-05-22T19:03:54.536Z,64.99
2023-05-22T19:06:23.159Z,65.90
2023-05-22T19:08:52.138Z,66.15
2023-05-22T19:11:20.832Z,66.23
2023-05-22T19:13:49.472Z,66.32
2023-05-22T19:16:17.754Z,65.08
2023-05-22T19:18:46.916Z,66.08
2023-05-22T19:21:15.657Z,66.16
2023-05-22T19:23:46.675Z,66.79
2023-05-22T19:26:15.378Z,67.12
2023-05-22T19:28:44.290Z,69.22
2023-05-22T19:31:15.344Z,69.46
2023-05-22T19:33:43.872Z,68.50
2023-05-22T19:36:12.168Z,68.23
2023-05-22T19:38:40.518Z,68.41
2023-05-22T19:41:08.918Z,68.40
2023-05-22T19:43:46.101Z,68.48
2023-05-22T19:46:14.728Z,68.85
2023-05-22T19:48:43.067Z,69.07
2023-05-22T19:51:11.622Z,68.91
2023-05-22T19:53:41.539Z,69.37
2023-05-22T19:56:09.806Z,69.35
2023-05-22T19:58:38.230Z,69.07
2023-05-22T20:01:06.577Z,70.71
2023-05-22T20:03:34.954Z,70.12
2023-05-22T20:06:03.331Z,69.73
2023-05-22T20:08:31.716Z,69.95
2023-05-22T20:11:07.385Z,69.95
2023-05-22T20:13:43.225Z,69.81
2023-05-22T20:16:16.451Z,70.49
2023-05-22T20:18:44.948Z,70.21
2023-05-22T20:21:13.200Z,70.91
2023-05-22T20:23:41.411Z,71.10
2023-05-22T20:26:09.937Z,70.98
2023-05-22T20:28:38.248Z,71.32
2023-05-22T20:31:06.756Z,70.89
2023-05-22T20:33:35.033Z,71.25
2023-05-22T20:36:04.167Z,71.67
2023-05-22T20:38:34.690Z,72.45
2023-05-22T20:41:08.628Z,72.59
2023-05-22T20:43:37.825Z,72.40
2023-05-22T20:46:06.088Z,72.43
2023-05-22T20:48:34.163Z,72.85
2023-05-22T20:51:02.360Z,72.80
2023-05-22T20:53:30.828Z,72.85
2023-05-22T20:55:59.726Z,73.78
2023-05-22T20:58:40.107Z,75.22
2023-05-22T21:01:08.764Z,73.17
2023-05-22T21:03:47.153Z,74.36
2023-05-22T21:06:19.241Z,75.16
2023-05-22T21:08:47.489Z,74.45
2023-05-22T21:11:17.846Z,75.08
2023-05-22T21:13:45.974Z,74.26
2023-05-22T21:16:14.290Z,73.95
2023-05-22T21:18:42.854Z,74.83
2023-05-22T21:21:11.148Z,74.86
2023-05-22T21:23:39.612Z,77.50
2023-05-22T21:26:07.955Z,74.50
2023-05-22T21:28:36.794Z,75.01
2023-05-22T21:31:07.742Z,75.97
2023-05-22T21:33:39.079Z,75.51
2023-05-22T21:36:07.453Z,75.55
2023-05-22T21:38:44.813Z,75.57
2023-05-22T21:41:16.014Z,75.31
2023-05-22T21:43:44.175Z,75.42
2023-05-22T21:46:12.437Z,75.53
2023-05-22T21:48:43.321Z,75.15
2023-05-22T21:51:21.557Z,74.25
2023-05-22T21:53:50.397Z,75.57
2023-05-22T21:56:32.846Z,75.40
2023-05-22T21:59:31.511Z,75.12
2023-05-22T22:01:59.829Z,74.93
2023-05-22T22:04:28.280Z,75.49
2023-05-22T22:06:56.556Z,75.78
2023-05-22T22:09:33.857Z,78.94
2023-05-22T22:12:05.577Z,77.92
2023-05-22T22:14:33.923Z,76.91
2023-05-22T22:17:23.883Z,75.99
2023-05-22T22:19:57.175Z,75.83
2023-05-22T22:22:25.897Z,75.83
2023-05-22T22:25:03.682Z,76.13
2023-05-22T22:27:41.194Z,75.76
2023-05-22T22:30:10.079Z,75.60
2023-05-22T22:32:41.824Z,75.93
2023-05-22T22:35:13.475Z,76.19
2023-05-22T22:37:44.048Z,77.64
2023-05-22T22:40:35.902Z,77.23
2023-05-22T22:43:04.392Z,78.21
2023-05-22T22:45:36.093Z,78.15
2023-05-22T22:48:13.450Z,79.10
2023-05-22T22:50:50.358Z,78.07
2023-05-22T22:53:29.299Z,77.70
2023-05-22T22:56:20.456Z,77.60
2023-05-22T22:58:52.054Z,77.33
2023-05-22T23:01:33.566Z,77.04
2023-05-22T23:04:18.718Z,77.17
2023-05-22T23:06:47.448Z,77.03
2023-05-22T23:09:18.866Z,77.18
2023-05-22T23:11:47.372Z,76.98
2023-05-22T23:14:35.945Z,77.07
2023-05-22T23:17:06.717Z,77.25
2023-05-22T23:19:34.898Z,77.20
2023-05-22T23:22:03.487Z,76.96
2023-05-22T23:24:39.079Z,77.50
2023-05-22T23:27:07.376Z,77.34
2023-05-22T23:29:51.271Z,77.82
2023-05-22T23:32:19.730Z,77.47
2023-05-22T23:34:57.171Z,77.50
2023-05-22T23:37:28.215Z,78.66
2023-05-22T23:39:56.370Z,78.97
2023-05-22T23:42:35.286Z,79.21
2023-05-22T23:45:07.232Z,78.52
2023-05-22T23:47:35.374Z,79.75
2023-05-22T23:50:04.221Z,79.05
2023-05-22T23:52:32.480Z,80.47
2023-05-22T23:55:00.950Z,81.80
2023-05-22T23:57:31.709Z,80.17
